sensor_id;sensor_type;location;lat;lon;timestamp;P1;durP1;ratioP1;P2;durP2;ratioP2
75912;SDS011;64592;52.168;21.040;2023-12-20T00:00:07;16.52;;;9.32;;
75912;SDS011;64592;52.168;21.040;2023-12-20T00:05:10;17.67;;;9.00;;
75912;SDS011;64592;52.168;21.040;2023-12-20T00:10:12;13.00;;;8.82;;
75912;SDS011;64592;52.168;21.040;2023-12-20T00:15:13;12.60;;;9.43;;
75912;SDS011;64592;52.168;21.040;2023-12-20T00:20:16;11.35;;;6.55;;
75912;SDS011;64592;52.168;21.040;2023-12-20T00:25:18;13.80;;;7.60;;
75912;SDS011;64592;52.168;21.040;2023-12-20T00:30:21;12.50;;;7.75;;
75912;SDS011;64592;52.168;21.040;2023-12-20T00:35:24;10.57;;;6.10;;
75912;SDS011;64592;52.168;21.040;2023-12-20T00:40:26;12.73;;;6.90;;
75912;SDS011;64592;52.168;21.040;2023-12-20T00:45:27;13.63;;;7.95;;
75912;SDS011;64592;52.168;21.040;2023-12-20T00:50:30;11.00;;;6.80;;
75912;SDS011;64592;52.168;21.040;2023-12-20T00:55:32;12.18;;;8.10;;
75912;SDS011;64592;52.168;21.040;2023-12-20T01:00:34;11.05;;;6.97;;
75912;SDS011;64592;52.168;21.040;2023-12-20T01:05:37;12.13;;;6.78;;
75912;SDS011;64592;52.168;21.040;2023-12-20T01:10:38;11.73;;;6.75;;
75912;SDS011;64592;52.168;21.040;2023-12-20T01:15:40;9.02;;;5.90;;
75912;SDS011;64592;52.168;21.040;2023-12-20T01:20:43;11.25;;;7.45;;
75912;SDS011;64592;52.168;21.040;2023-12-20T01:25:45;10.80;;;6.82;;
75912;SDS011;64592;52.168;21.040;2023-12-20T01:30:46;13.05;;;7.15;;
75912;SDS011;64592;52.168;21.040;2023-12-20T01:35:49;13.93;;;6.70;;
75912;SDS011;64592;52.168;21.040;2023-12-20T01:40:51;10.90;;;7.10;;
75912;SDS011;64592;52.168;21.040;2023-12-20T01:45:52;9.73;;;6.65;;
75912;SDS011;64592;52.168;21.040;2023-12-20T01:50:58;11.38;;;7.22;;
75912;SDS011;64592;52.168;21.040;2023-12-20T01:56:01;9.93;;;6.80;;
75912;SDS011;64592;52.168;21.040;2023-12-20T02:01:03;14.38;;;7.45;;
75912;SDS011;64592;52.168;21.040;2023-12-20T02:06:06;10.23;;;7.05;;
75912;SDS011;64592;52.168;21.040;2023-12-20T02:11:08;10.82;;;6.97;;
75912;SDS011;64592;52.168;21.040;2023-12-20T02:16:11;8.85;;;6.75;;
75912;SDS011;64592;52.168;21.040;2023-12-20T02:21:14;11.25;;;5.85;;
75912;SDS011;64592;52.168;21.040;2023-12-20T02:26:17;10.85;;;6.75;;
75912;SDS011;64592;52.168;21.040;2023-12-20T02:31:20;11.07;;;6.57;;
75912;SDS011;64592;52.168;21.040;2023-12-20T02:36:22;12.00;;;6.20;;
75912;SDS011;64592;52.168;21.040;2023-12-20T02:41:25;10.40;;;7.03;;
75912;SDS011;64592;52.168;21.040;2023-12-20T02:46:27;10.20;;;5.82;;
75912;SDS011;64592;52.168;21.040;2023-12-20T02:51:28;10.70;;;6.35;;
75912;SDS011;64592;52.168;21.040;2023-12-20T02:56:31;9.90;;;6.47;;
75912;SDS011;64592;52.168;21.040;2023-12-20T03:01:33;9.07;;;5.78;;
75912;SDS011;64592;52.168;21.040;2023-12-20T03:06:36;9.60;;;5.35;;
75912;SDS011;64592;52.168;21.040;2023-12-20T03:11:39;9.95;;;5.47;;
75912;SDS011;64592;52.168;21.040;2023-12-20T03:16:40;8.63;;;5.00;;
75912;SDS011;64592;52.168;21.040;2023-12-20T03:21:42;7.00;;;4.88;;
75912;SDS011;64592;52.168;21.040;2023-12-20T03:26:45;8.20;;;3.85;;
75912;SDS011;64592;52.168;21.040;2023-12-20T03:31:46;7.43;;;4.97;;
75912;SDS011;64592;52.168;21.040;2023-12-20T03:36:48;6.80;;;4.22;;
75912;SDS011;64592;52.168;21.040;2023-12-20T03:41:51;8.50;;;4.00;;
75912;SDS011;64592;52.168;21.040;2023-12-20T03:46:53;6.93;;;4.10;;
75912;SDS011;64592;52.168;21.040;2023-12-20T03:51:54;8.00;;;3.45;;
75912;SDS011;64592;52.168;21.040;2023-12-20T03:56:57;7.25;;;4.55;;
75912;SDS011;64592;52.168;21.040;2023-12-20T04:01:59;6.07;;;3.88;;
75912;SDS011;64592;52.168;21.040;2023-12-20T04:07:00;5.85;;;3.70;;
75912;SDS011;64592;52.168;21.040;2023-12-20T04:12:04;7.78;;;4.30;;
75912;SDS011;64592;52.168;21.040;2023-12-20T04:17:06;8.75;;;5.15;;
75912;SDS011;64592;52.168;21.040;2023-12-20T04:22:08;6.18;;;4.55;;
75912;SDS011;64592;52.168;21.040;2023-12-20T04:27:11;7.07;;;4.93;;
75912;SDS011;64592;52.168;21.040;2023-12-20T04:32:13;6.97;;;5.07;;
75912;SDS011;64592;52.168;21.040;2023-12-20T04:37:14;8.35;;;4.68;;
75912;SDS011;64592;52.168;21.040;2023-12-20T04:42:18;7.47;;;4.72;;
75912;SDS011;64592;52.168;21.040;2023-12-20T04:47:19;10.70;;;5.72;;
75912;SDS011;64592;52.168;21.040;2023-12-20T04:52:21;7.90;;;4.82;;
75912;SDS011;64592;52.168;21.040;2023-12-20T04:57:24;8.40;;;4.80;;
75912;SDS011;64592;52.168;21.040;2023-12-20T05:02:26;7.38;;;5.10;;
75912;SDS011;64592;52.168;21.040;2023-12-20T05:07:28;8.85;;;4.72;;
75912;SDS011;64592;52.168;21.040;2023-12-20T05:12:31;12.15;;;6.50;;
75912;SDS011;64592;52.168;21.040;2023-12-20T05:17:32;10.25;;;5.53;;
75912;SDS011;64592;52.168;21.040;2023-12-20T05:22:34;10.93;;;5.53;;
75912;SDS011;64592;52.168;21.040;2023-12-20T05:27:37;6.95;;;5.10;;
75912;SDS011;64592;52.168;21.040;2023-12-20T05:32:39;11.95;;;7.30;;
75912;SDS011;64592;52.168;21.040;2023-12-20T05:37:41;12.63;;;6.88;;
75912;SDS011;64592;52.168;21.040;2023-12-20T05:42:44;8.00;;;5.57;;
75912;SDS011;64592;52.168;21.040;2023-12-20T05:47:46;11.82;;;6.25;;
75912;SDS011;64592;52.168;21.040;2023-12-20T05:52:47;10.90;;;6.55;;
75912;SDS011;64592;52.168;21.040;2023-12-20T05:57:50;11.25;;;6.25;;
75912;SDS011;64592;52.168;21.040;2023-12-20T06:02:52;10.90;;;5.55;;
75912;SDS011;64592;52.168;21.040;2023-12-20T06:07:54;10.25;;;6.07;;
75912;SDS011;64592;52.168;21.040;2023-12-20T06:12:58;6.65;;;4.45;;
75912;SDS011;64592;52.168;21.040;2023-12-20T06:18:00;7.72;;;4.43;;
75912;SDS011;64592;52.168;21.040;2023-12-20T06:23:02;7.68;;;4.97;;
75912;SDS011;64592;52.168;21.040;2023-12-20T06:28:06;7.03;;;4.30;;
75912;SDS011;64592;52.168;21.040;2023-12-20T06:33:08;8.07;;;5.30;;
75912;SDS011;64592;52.168;21.040;2023-12-20T06:38:10;8.13;;;4.47;;
75912;SDS011;64592;52.168;21.040;2023-12-20T06:43:13;10.65;;;5.25;;
75912;SDS011;64592;52.168;21.040;2023-12-20T06:48:14;7.35;;;4.60;;
75912;SDS011;64592;52.168;21.040;2023-12-20T06:53:16;8.40;;;5.18;;
75912;SDS011;64592;52.168;21.040;2023-12-20T06:58:19;8.85;;;6.03;;
75912;SDS011;64592;52.168;21.040;2023-12-20T07:03:21;7.95;;;5.45;;
75912;SDS011;64592;52.168;21.040;2023-12-20T07:08:22;9.85;;;5.68;;
75912;SDS011;64592;52.168;21.040;2023-12-20T07:13:25;9.80;;;5.28;;
75912;SDS011;64592;52.168;21.040;2023-12-20T07:18:27;9.38;;;5.90;;
75912;SDS011;64592;52.168;21.040;2023-12-20T07:23:29;12.60;;;6.63;;
75912;SDS011;64592;52.168;21.040;2023-12-20T07:28:32;12.18;;;6.82;;
75912;SDS011;64592;52.168;21.040;2023-12-20T07:33:33;9.52;;;5.30;;
75912;SDS011;64592;52.168;21.040;2023-12-20T07:38:35;12.77;;;7.03;;
75912;SDS011;64592;52.168;21.040;2023-12-20T07:43:38;10.40;;;6.30;;
75912;SDS011;64592;52.168;21.040;2023-12-20T07:48:40;10.82;;;5.97;;
75912;SDS011;64592;52.168;21.040;2023-12-20T07:53:42;10.48;;;5.50;;
75912;SDS011;64592;52.168;21.040;2023-12-20T07:58:45;12.20;;;6.57;;
75912;SDS011;64592;52.168;21.040;2023-12-20T08:03:48;8.43;;;5.38;;
75912;SDS011;64592;52.168;21.040;2023-12-20T08:08:50;10.55;;;5.25;;
75912;SDS011;64592;52.168;21.040;2023-12-20T08:13:53;7.68;;;5.13;;
75912;SDS011;64592;52.168;21.040;2023-12-20T08:18:54;10.65;;;5.47;;
75912;SDS011;64592;52.168;21.040;2023-12-20T08:23:56;7.47;;;4.63;;
75912;SDS011;64592;52.168;21.040;2023-12-20T08:28:59;7.75;;;4.93;;
75912;SDS011;64592;52.168;21.040;2023-12-20T08:34:01;7.25;;;4.60;;
75912;SDS011;64592;52.168;21.040;2023-12-20T08:39:03;7.75;;;4.60;;
75912;SDS011;64592;52.168;21.040;2023-12-20T08:44:09;10.27;;;4.47;;
75912;SDS011;64592;52.168;21.040;2023-12-20T08:49:10;7.38;;;4.00;;
75912;SDS011;64592;52.168;21.040;2023-12-20T08:54:12;7.53;;;5.15;;
75912;SDS011;64592;52.168;21.040;2023-12-20T08:59:15;7.93;;;4.75;;
75912;SDS011;64592;52.168;21.040;2023-12-20T09:04:18;6.72;;;4.13;;
75912;SDS011;64592;52.168;21.040;2023-12-20T09:09:20;6.70;;;4.30;;
75912;SDS011;64592;52.168;21.040;2023-12-20T09:14:23;7.82;;;4.55;;
75912;SDS011;64592;52.168;21.040;2023-12-20T09:19:25;8.55;;;4.38;;
75912;SDS011;64592;52.168;21.040;2023-12-20T09:24:26;7.47;;;4.50;;
75912;SDS011;64592;52.168;21.040;2023-12-20T09:29:29;6.68;;;3.67;;
75912;SDS011;64592;52.168;21.040;2023-12-20T09:34:31;6.90;;;4.22;;
75912;SDS011;64592;52.168;21.040;2023-12-20T09:39:33;5.72;;;3.40;;
75912;SDS011;64592;52.168;21.040;2023-12-20T09:44:36;5.57;;;3.45;;
75912;SDS011;64592;52.168;21.040;2023-12-20T09:49:41;7.05;;;4.20;;
75912;SDS011;64592;52.168;21.040;2023-12-20T09:54:44;7.07;;;4.55;;
75912;SDS011;64592;52.168;21.040;2023-12-20T09:59:50;7.70;;;4.88;;
75912;SDS011;64592;52.168;21.040;2023-12-20T10:04:52;7.57;;;4.93;;
75912;SDS011;64592;52.168;21.040;2023-12-20T10:09:54;11.10;;;5.38;;
75912;SDS011;64592;52.168;21.040;2023-12-20T10:14:58;9.15;;;5.45;;
75912;SDS011;64592;52.168;21.040;2023-12-20T10:20:00;9.40;;;4.55;;
75912;SDS011;64592;52.168;21.040;2023-12-20T10:25:02;6.95;;;4.22;;
75912;SDS011;64592;52.168;21.040;2023-12-20T10:30:06;7.63;;;5.10;;
75912;SDS011;64592;52.168;21.040;2023-12-20T10:35:09;7.70;;;4.43;;
75912;SDS011;64592;52.168;21.040;2023-12-20T10:40:11;6.80;;;4.05;;
75912;SDS011;64592;52.168;21.040;2023-12-20T10:45:15;5.50;;;4.03;;
75912;SDS011;64592;52.168;21.040;2023-12-20T10:50:18;7.95;;;4.47;;
75912;SDS011;64592;52.168;21.040;2023-12-20T10:55:20;7.95;;;4.60;;
75912;SDS011;64592;52.168;21.040;2023-12-20T11:00:24;7.82;;;4.85;;
75912;SDS011;64592;52.168;21.040;2023-12-20T11:05:28;9.00;;;4.90;;
75912;SDS011;64592;52.168;21.040;2023-12-20T11:10:36;9.10;;;5.18;;
75912;SDS011;64592;52.168;21.040;2023-12-20T11:15:45;8.45;;;5.40;;
75912;SDS011;64592;52.168;21.040;2023-12-20T11:20:47;8.73;;;4.47;;
75912;SDS011;64592;52.168;21.040;2023-12-20T11:25:51;5.90;;;3.38;;
75912;SDS011;64592;52.168;21.040;2023-12-20T11:30:56;7.25;;;4.50;;
75912;SDS011;64592;52.168;21.040;2023-12-20T11:35:59;6.60;;;3.47;;
75912;SDS011;64592;52.168;21.040;2023-12-20T11:41:05;4.45;;;3.33;;
75912;SDS011;64592;52.168;21.040;2023-12-20T11:46:08;7.72;;;4.63;;
75912;SDS011;64592;52.168;21.040;2023-12-20T11:51:10;7.93;;;4.05;;
75912;SDS011;64592;52.168;21.040;2023-12-20T11:56:13;6.50;;;4.50;;
75912;SDS011;64592;52.168;21.040;2023-12-20T12:01:16;7.00;;;4.13;;
75912;SDS011;64592;52.168;21.040;2023-12-20T12:06:18;6.45;;;4.70;;
75912;SDS011;64592;52.168;21.040;2023-12-20T12:11:20;6.75;;;3.65;;
75912;SDS011;64592;52.168;21.040;2023-12-20T12:16:24;6.57;;;4.00;;
75912;SDS011;64592;52.168;21.040;2023-12-20T12:21:26;7.55;;;3.95;;
75912;SDS011;64592;52.168;21.040;2023-12-20T12:26:29;7.72;;;4.55;;
75912;SDS011;64592;52.168;21.040;2023-12-20T12:31:33;6.40;;;3.17;;
75912;SDS011;64592;52.168;21.040;2023-12-20T12:36:35;6.47;;;4.00;;
75912;SDS011;64592;52.168;21.040;2023-12-20T12:41:37;7.30;;;3.50;;
75912;SDS011;64592;52.168;21.040;2023-12-20T12:46:40;8.00;;;4.47;;
75912;SDS011;64592;52.168;21.040;2023-12-20T12:51:42;6.50;;;4.07;;
75912;SDS011;64592;52.168;21.040;2023-12-20T12:56:44;8.57;;;5.45;;
75912;SDS011;64592;52.168;21.040;2023-12-20T13:01:49;6.25;;;4.13;;
75912;SDS011;64592;52.168;21.040;2023-12-20T13:06:50;7.65;;;5.15;;
75912;SDS011;64592;52.168;21.040;2023-12-20T13:11:52;6.20;;;3.85;;
75912;SDS011;64592;52.168;21.040;2023-12-20T13:16:55;9.88;;;5.20;;
75912;SDS011;64592;52.168;21.040;2023-12-20T13:21:57;7.43;;;4.15;;
75912;SDS011;64592;52.168;21.040;2023-12-20T13:26:59;10.95;;;6.10;;
75912;SDS011;64592;52.168;21.040;2023-12-20T13:32:02;9.98;;;5.72;;
75912;SDS011;64592;52.168;21.040;2023-12-20T13:37:04;10.88;;;5.45;;
75912;SDS011;64592;52.168;21.040;2023-12-20T13:42:05;7.18;;;4.50;;
75912;SDS011;64592;52.168;21.040;2023-12-20T13:47:09;11.25;;;6.25;;
75912;SDS011;64592;52.168;21.040;2023-12-20T13:52:10;9.38;;;4.72;;
75912;SDS011;64592;52.168;21.040;2023-12-20T13:57:12;9.90;;;6.00;;
75912;SDS011;64592;52.168;21.040;2023-12-20T14:02:15;10.95;;;5.85;;
75912;SDS011;64592;52.168;21.040;2023-12-20T14:07:17;14.80;;;6.03;;
75912;SDS011;64592;52.168;21.040;2023-12-20T14:12:19;8.45;;;5.10;;
75912;SDS011;64592;52.168;21.040;2023-12-20T14:17:22;8.48;;;4.88;;
75912;SDS011;64592;52.168;21.040;2023-12-20T14:22:23;8.25;;;5.28;;
75912;SDS011;64592;52.168;21.040;2023-12-20T14:27:26;9.68;;;4.82;;
75912;SDS011;64592;52.168;21.040;2023-12-20T14:32:30;8.15;;;5.35;;
75912;SDS011;64592;52.168;21.040;2023-12-20T14:37:32;6.32;;;4.40;;
75912;SDS011;64592;52.168;21.040;2023-12-20T14:42:34;7.82;;;5.00;;
75912;SDS011;64592;52.168;21.040;2023-12-20T14:47:37;6.22;;;4.18;;
75912;SDS011;64592;52.168;21.040;2023-12-20T14:52:39;6.65;;;3.22;;
75912;SDS011;64592;52.168;21.040;2023-12-20T14:57:40;4.47;;;2.50;;
75912;SDS011;64592;52.168;21.040;2023-12-20T15:02:43;6.50;;;3.67;;
75912;SDS011;64592;52.168;21.040;2023-12-20T15:07:45;9.02;;;4.25;;
75912;SDS011;64592;52.168;21.040;2023-12-20T15:12:48;7.93;;;3.35;;
75912;SDS011;64592;52.168;21.040;2023-12-20T15:17:51;8.15;;;3.70;;
75912;SDS011;64592;52.168;21.040;2023-12-20T15:22:52;6.13;;;3.63;;
75912;SDS011;64592;52.168;21.040;2023-12-20T15:27:55;5.00;;;3.33;;
75912;SDS011;64592;52.168;21.040;2023-12-20T15:32:58;4.55;;;3.05;;
75912;SDS011;64592;52.168;21.040;2023-12-20T15:38:00;6.65;;;3.72;;
75912;SDS011;64592;52.168;21.040;2023-12-20T15:43:02;3.65;;;2.63;;
75912;SDS011;64592;52.168;21.040;2023-12-20T15:48:06;7.15;;;3.55;;
75912;SDS011;64592;52.168;21.040;2023-12-20T15:53:09;5.25;;;3.22;;
75912;SDS011;64592;52.168;21.040;2023-12-20T15:58:11;9.55;;;3.22;;
75912;SDS011;64592;52.168;21.040;2023-12-20T16:03:14;3.78;;;3.05;;
75912;SDS011;64592;52.168;21.040;2023-12-20T16:08:16;6.38;;;3.70;;
75912;SDS011;64592;52.168;21.040;2023-12-20T16:13:17;4.88;;;3.10;;
75912;SDS011;64592;52.168;21.040;2023-12-20T16:18:21;6.70;;;3.85;;
75912;SDS011;64592;52.168;21.040;2023-12-20T16:23:23;4.65;;;3.22;;
75912;SDS011;64592;52.168;21.040;2023-12-20T16:28:25;5.38;;;3.45;;
75912;SDS011;64592;52.168;21.040;2023-12-20T16:33:28;5.25;;;3.35;;
75912;SDS011;64592;52.168;21.040;2023-12-20T16:38:30;3.72;;;2.28;;
75912;SDS011;64592;52.168;21.040;2023-12-20T16:43:32;6.10;;;3.22;;
75912;SDS011;64592;52.168;21.040;2023-12-20T16:48:35;5.95;;;4.07;;
75912;SDS011;64592;52.168;21.040;2023-12-20T16:53:36;6.55;;;4.32;;
75912;SDS011;64592;52.168;21.040;2023-12-20T16:58:38;9.55;;;4.53;;
75912;SDS011;64592;52.168;21.040;2023-12-20T17:03:41;8.07;;;3.85;;
75912;SDS011;64592;52.168;21.040;2023-12-20T17:08:43;4.32;;;3.33;;
75912;SDS011;64592;52.168;21.040;2023-12-20T17:13:44;8.90;;;3.83;;
75912;SDS011;64592;52.168;21.040;2023-12-20T17:18:47;5.80;;;3.75;;
75912;SDS011;64592;52.168;21.040;2023-12-20T17:23:49;5.07;;;3.35;;
75912;SDS011;64592;52.168;21.040;2023-12-20T17:28:51;5.78;;;2.95;;
75912;SDS011;64592;52.168;21.040;2023-12-20T17:33:54;6.90;;;3.25;;
75912;SDS011;64592;52.168;21.040;2023-12-20T17:38:55;9.63;;;4.00;;
75912;SDS011;64592;52.168;21.040;2023-12-20T17:43:57;5.55;;;3.15;;
75912;SDS011;64592;52.168;21.040;2023-12-20T17:49:00;6.05;;;2.78;;
75912;SDS011;64592;52.168;21.040;2023-12-20T17:54:02;3.00;;;2.67;;
75912;SDS011;64592;52.168;21.040;2023-12-20T17:59:04;7.43;;;3.58;;
75912;SDS011;64592;52.168;21.040;2023-12-20T18:04:07;4.85;;;2.83;;
75912;SDS011;64592;52.168;21.040;2023-12-20T18:09:09;5.47;;;4.97;;
75912;SDS011;64592;52.168;21.040;2023-12-20T18:14:11;5.45;;;2.83;;
75912;SDS011;64592;52.168;21.040;2023-12-20T18:19:14;7.07;;;2.85;;
75912;SDS011;64592;52.168;21.040;2023-12-20T18:24:17;7.30;;;2.83;;
75912;SDS011;64592;52.168;21.040;2023-12-20T18:29:18;5.50;;;3.38;;
75912;SDS011;64592;52.168;21.040;2023-12-20T18:34:21;7.05;;;3.40;;
75912;SDS011;64592;52.168;21.040;2023-12-20T18:39:24;8.38;;;3.30;;
75912;SDS011;64592;52.168;21.040;2023-12-20T18:44:25;6.38;;;3.13;;
75912;SDS011;64592;52.168;21.040;2023-12-20T18:49:28;7.22;;;3.38;;
75912;SDS011;64592;52.168;21.040;2023-12-20T18:54:30;5.88;;;3.15;;
75912;SDS011;64592;52.168;21.040;2023-12-20T18:59:32;7.93;;;3.08;;
75912;SDS011;64592;52.168;21.040;2023-12-20T19:04:36;4.28;;;2.60;;
75912;SDS011;64592;52.168;21.040;2023-12-20T19:09:37;6.15;;;2.78;;
75912;SDS011;64592;52.168;21.040;2023-12-20T19:14:39;5.32;;;2.92;;
75912;SDS011;64592;52.168;21.040;2023-12-20T19:19:42;5.93;;;3.20;;
75912;SDS011;64592;52.168;21.040;2023-12-20T19:24:44;7.78;;;4.38;;
75912;SDS011;64592;52.168;21.040;2023-12-20T19:29:45;3.08;;;2.20;;
75912;SDS011;64592;52.168;21.040;2023-12-20T19:34:48;0.80;;;0.80;;
75912;SDS011;64592;52.168;21.040;2023-12-20T19:39:50;2.00;;;1.08;;
75912;SDS011;64592;52.168;21.040;2023-12-20T19:44:52;2.78;;;1.10;;
75912;SDS011;64592;52.168;21.040;2023-12-20T19:49:55;1.40;;;0.93;;
75912;SDS011;64592;52.168;21.040;2023-12-20T19:54:57;3.97;;;1.25;;
75912;SDS011;64592;52.168;21.040;2023-12-20T19:59:59;3.47;;;2.33;;
75912;SDS011;64592;52.168;21.040;2023-12-20T20:05:02;1.10;;;0.57;;
75912;SDS011;64592;52.168;21.040;2023-12-20T20:10:07;1.52;;;1.00;;
75912;SDS011;64592;52.168;21.040;2023-12-20T20:15:09;2.22;;;1.13;;
75912;SDS011;64592;52.168;21.040;2023-12-20T20:20:12;3.00;;;1.25;;
75912;SDS011;64592;52.168;21.040;2023-12-20T20:25:14;1.70;;;0.95;;
75912;SDS011;64592;52.168;21.040;2023-12-20T20:30:16;1.77;;;1.27;;
75912;SDS011;64592;52.168;21.040;2023-12-20T20:35:19;2.08;;;1.20;;
75912;SDS011;64592;52.168;21.040;2023-12-20T20:40:21;4.88;;;2.33;;
75912;SDS011;64592;52.168;21.040;2023-12-20T20:45:23;3.63;;;2.17;;
75912;SDS011;64592;52.168;21.040;2023-12-20T20:50:26;5.65;;;2.05;;
75912;SDS011;64592;52.168;21.040;2023-12-20T20:55:28;1.38;;;1.13;;
75912;SDS011;64592;52.168;21.040;2023-12-20T21:00:29;3.75;;;2.22;;
75912;SDS011;64592;52.168;21.040;2023-12-20T21:05:33;5.32;;;2.10;;
75912;SDS011;64592;52.168;21.040;2023-12-20T21:10:35;3.75;;;1.85;;
75912;SDS011;64592;52.168;21.040;2023-12-20T21:15:36;4.85;;;2.28;;
75912;SDS011;64592;52.168;21.040;2023-12-20T21:20:39;5.97;;;2.22;;
75912;SDS011;64592;52.168;21.040;2023-12-20T21:25:41;5.82;;;2.25;;
75912;SDS011;64592;52.168;21.040;2023-12-20T21:30:43;3.35;;;1.83;;
75912;SDS011;64592;52.168;21.040;2023-12-20T21:35:46;2.63;;;1.33;;
75912;SDS011;64592;52.168;21.040;2023-12-20T21:40:47;5.78;;;2.85;;
75912;SDS011;64592;52.168;21.040;2023-12-20T21:45:49;3.42;;;2.13;;
75912;SDS011;64592;52.168;21.040;2023-12-20T21:50:52;4.68;;;2.15;;
75912;SDS011;64592;52.168;21.040;2023-12-20T21:55:54;3.80;;;2.85;;
75912;SDS011;64592;52.168;21.040;2023-12-20T22:00:55;4.78;;;2.40;;
75912;SDS011;64592;52.168;21.040;2023-12-20T22:05:58;6.82;;;2.97;;
75912;SDS011;64592;52.168;21.040;2023-12-20T22:11:00;5.95;;;2.78;;
75912;SDS011;64592;52.168;21.040;2023-12-20T22:16:02;4.13;;;2.30;;
75912;SDS011;64592;52.168;21.040;2023-12-20T22:21:05;5.78;;;2.50;;
75912;SDS011;64592;52.168;21.040;2023-12-20T22:26:07;7.80;;;3.95;;
75912;SDS011;64592;52.168;21.040;2023-12-20T22:31:09;6.57;;;3.08;;
75912;SDS011;64592;52.168;21.040;2023-12-20T22:36:12;5.88;;;2.10;;
75912;SDS011;64592;52.168;21.040;2023-12-20T22:41:14;6.10;;;2.72;;
75912;SDS011;64592;52.168;21.040;2023-12-20T22:46:15;6.22;;;2.45;;
75912;SDS011;64592;52.168;21.040;2023-12-20T22:51:18;4.82;;;2.55;;
75912;SDS011;64592;52.168;21.040;2023-12-20T22:56:20;4.32;;;2.45;;
75912;SDS011;64592;52.168;21.040;2023-12-20T23:01:22;4.40;;;2.35;;
75912;SDS011;64592;52.168;21.040;2023-12-20T23:06:25;4.55;;;2.50;;
75912;SDS011;64592;52.168;21.040;2023-12-20T23:11:27;5.30;;;2.80;;
75912;SDS011;64592;52.168;21.040;2023-12-20T23:16:28;5.03;;;2.70;;
75912;SDS011;64592;52.168;21.040;2023-12-20T23:21:31;5.28;;;2.50;;
75912;SDS011;64592;52.168;21.040;2023-12-20T23:26:34;4.93;;;2.33;;
75912;SDS011;64592;52.168;21.040;2023-12-20T23:31:36;10.30;;;3.10;;
75912;SDS011;64592;52.168;21.040;2023-12-20T23:36:39;6.80;;;2.75;;
75912;SDS011;64592;52.168;21.040;2023-12-20T23:41:40;4.18;;;2.20;;
75912;SDS011;64592;52.168;21.040;2023-12-20T23:46:42;3.13;;;2.25;;
75912;SDS011;64592;52.168;21.040;2023-12-20T23:51:45;7.05;;;2.80;;
75912;SDS011;64592;52.168;21.040;2023-12-20T23:56:46;5.60;;;2.25;;
